Time;durP1;ratioP1;P1;durP2;ratioP2;P2;SDS_P1;SDS_P2;PMS_P1;PMS_P2;Temp;Humidity;BMP_temperature;BMP_pressure;BME280_temperature;BME280_humidity;BME280_pressure;Samples;Min_cycle;Max_cycle;Signal;HPM_P1;HPM_P2
2023/02/05 00:00:58;;;;;;;;;;;;;;;29.47;17.37;100427.41;5079101;28;1119;-36
2023/02/05 00:03:23;;;;;;;;;;;;;;;29.38;17.63;100439.50;5078518;28;1913;-37
2023/02/05 00:05:49;;;;;;;;;;;;;;;29.52;17.27;100432.19;5078952;28;1094;-37
2023/02/05 00:08:14;;;;;;;;;;;;;;;29.30;17.70;100438.63;5061460;28;1116;-36
2023/02/05 00:10:39;;;;;;;;;;;;;;;29.38;17.59;100439.50;5078938;28;1111;-35
2023/02/05 00:13:07;;;;;;;;;;;;;;;29.48;17.22;100423.63;5079205;28;1055;-36
2023/02/05 00:15:33;;;;;;;;;;;;;;;29.53;17.13;100429.28;5077729;28;1036;-36
2023/02/05 00:17:58;;;;;;;;;;;;;;;29.60;17.14;100423.03;5078919;28;1093;-36
2023/02/05 00:20:23;;;;;;;;;;;;;;;29.38;17.13;100439.50;5078891;28;1047;-36
2023/02/05 00:22:49;;;;;;;;;;;;;;;29.54;17.03;100433.66;5078894;28;1055;-36
2023/02/05 00:25:14;;;;;;;;;;;;;;;29.31;17.52;100423.22;5078948;28;1894;-36
2023/02/05 00:27:39;;;;;;;;;;;;;;;29.47;17.19;100424.69;5078546;28;1060;-36
2023/02/05 00:30:05;;;;;;;;;;;;;;;29.31;17.25;100443.00;5078286;28;1194;-36
2023/02/05 00:32:30;;;;;;;;;;;;;;;29.58;17.18;100436.78;5061175;28;1250;-36
2023/02/05 00:34:55;;;;;;;;;;;;;;;29.37;17.12;100438.66;5079163;28;1158;-34
2023/02/05 00:37:21;;;;;;;;;;;;;;;29.44;17.09;100442.22;5078526;28;1129;-36
2023/02/05 00:39:46;;;;;;;;;;;;;;;29.38;17.00;100436.78;5078274;28;1060;-37
2023/02/05 00:42:11;;;;;;;;;;;;;;;29.55;16.82;100432.63;5078954;28;1055;-36
2023/02/05 00:44:36;;;;;;;;;;;;;;;29.38;17.07;100442.19;5078728;28;1957;-36
2023/02/05 00:47:02;;;;;;;;;;;;;;;29.34;17.07;100436.34;5078715;28;1136;-36
2023/02/05 00:49:27;;;;;;;;;;;;;;;29.39;17.08;100443.84;5078105;28;1099;-35
2023/02/05 00:51:52;;;;;;;;;;;;;;;29.43;16.97;100455.94;5076744;28;1325;-35
2023/02/05 00:54:18;;;;;;;;;;;;;;;29.56;16.71;100447.00;5077832;28;1396;-35
2023/02/05 00:56:43;;;;;;;;;;;;;;;29.48;16.81;100461.56;5077486;28;1321;-36
2023/02/05 00:59:08;;;;;;;;;;;;;;;29.31;17.00;100453.03;5078139;28;1091;-36
2023/02/05 01:01:33;;;;;;;;;;;;;;;29.24;17.09;100463.84;5078138;28;1092;-36
2023/02/05 01:03:59;;;;;;;;;;;;;;;29.43;16.77;100467.63;5077784;28;1909;-37
2023/02/05 01:06:24;;;;;;;;;;;;;;;29.25;16.74;100457.38;5078462;28;1071;-36
2023/02/05 01:08:49;;;;;;;;;;;;;;;29.39;16.82;100458.25;5078371;28;1162;-35
2023/02/05 01:11:15;;;;;;;;;;;;;;;29.32;16.71;100455.53;5078277;28;1214;-35
2023/02/05 01:13:40;;;;;;;;;;;;;;;29.26;16.76;100455.50;5077285;28;1392;-35
2023/02/05 01:16:06;;;;;;;;;;;;;;;29.25;16.76;100461.94;5077412;28;1344;-36
2023/02/05 01:18:31;;;;;;;;;;;;;;;29.19;16.87;100459.03;5077426;28;1325;-36
2023/02/05 01:20:56;;;;;;;;;;;;;;;29.41;16.75;100463.47;5076906;28;1368;-35
2023/02/05 01:23:21;;;;;;;;;;;;;;;29.39;16.54;100462.81;5077608;28;1894;-35
2023/02/05 01:25:47;;;;;;;;;;;;;;;29.46;16.47;100463.69;5077167;28;1353;-34
2023/02/05 01:28:12;;;;;;;;;;;;;;;29.15;16.77;100476.72;5076324;28;1416;-36
2023/02/05 01:30:38;;;;;;;;;;;;;;;29.11;16.99;100475.47;5077052;28;1306;-36
2023/02/05 01:33:03;;;;;;;;;;;;;;;29.22;16.70;100479.44;5077097;28;1444;-36
2023/02/05 01:35:28;;;;;;;;;;;;;;;29.11;16.63;100478.19;5077398;28;1329;-36
2023/02/05 01:37:54;;;;;;;;;;;;;;;29.25;16.45;100481.75;5077317;28;1336;-36
2023/02/05 01:40:19;;;;;;;;;;;;;;;29.48;16.34;100472.41;5076761;28;1356;-36
2023/02/05 01:42:44;;;;;;;;;;;;;;;29.08;16.53;100494.81;5076988;28;1095;-36
2023/02/05 01:45:19;;;;;;;;;;;;;;;29.41;16.22;100485.94;5077209;28;1906;-35
2023/02/05 01:47:44;;;;;;;;;;;;;;;29.37;16.44;100478.44;5076360;28;1170;-35
2023/02/05 01:50:09;;;;;;;;;;;;;;;29.52;16.43;100487.22;5083002;28;986;-36
2023/02/05 01:52:34;;;;;;;;;;;;;;;29.27;16.47;100497.78;5077118;28;1137;-36
2023/02/05 01:55:01;;;;;;;;;;;;;;;29.60;16.02;100498.94;5077314;28;1090;-35
2023/02/05 01:57:26;;;;;;;;;;;;;;;29.34;16.48;100504.91;5063022;28;1095;-34
2023/02/05 01:59:51;;;;;;;;;;;;;;;29.43;16.10;100497.41;5059452;28;1207;-35
2023/02/05 02:02:17;;;;;;;;;;;;;;;29.42;16.10;100498.47;5058829;28;1195;-36
2023/02/05 02:04:43;;;;;;;;;;;;;;;29.49;16.19;100501.19;5040108;28;1918;-34
2023/02/05 02:07:12;;;;;;;;;;;;;;;29.48;16.14;100504.13;5056741;28;1123;-35
2023/02/05 02:09:38;;;;;;;;;;;;;;;29.47;16.18;100503.28;5055979;28;1171;-35
2023/02/05 02:12:04;;;;;;;;;;;;;;;29.52;16.03;100499.94;5039320;28;1142;-35
2023/02/05 02:14:30;;;;;;;;;;;;;;;29.15;16.51;100502.97;5039123;28;1215;-35
2023/02/05 02:16:55;;;;;;;;;;;;;;;29.43;16.20;100515.53;5056378;28;1202;-36
2023/02/05 02:19:23;;;;;;;;;;;;;;;29.75;15.81;100518.56;5056072;28;1051;-35
2023/02/05 02:21:48;;;;;;;;;;;;;;;29.77;15.99;100537.34;5038755;28;1088;-34
2023/02/05 02:24:20;;;;;;;;;;;;;;;30.18;15.61;100539.03;5056823;28;1905;-33
2023/02/05 02:27:03;;;;;;;;;;;;;;;30.18;15.73;100530.03;5056268;28;1071;-35
2023/02/05 02:29:34;;;;;;;;;;;;;;;30.24;15.84;100537.41;5055851;28;957;-35
2023/02/05 02:32:23;;;;;;;;;;;;;;;30.52;15.62;100521.91;5056105;28;1158;-34
2023/02/05 02:34:49;;;;;;;;;;;;;;;28.03;18.00;100537.00;5047800;28;1365;-34
2023/02/05 02:37:24;;;;;;;;;;;;;;;27.46;17.79;100526.88;5038878;28;1219;-35
2023/02/05 02:39:57;;;;;;;;;;;;;;;26.45;18.93;100535.28;5038255;28;1052;-34
2023/02/05 02:42:25;;;;;;;;;;;;;;;25.85;19.73;100545.84;5055492;28;1433;-34
2023/02/05 02:44:52;;;;;;;;;;;;;;;25.47;19.87;100539.31;5056316;28;1894;-33
2023/02/05 02:47:19;;;;;;;;;;;;;;;25.48;19.62;100532.06;5038817;28;1157;-34
2023/02/05 02:49:49;;;;;;;;;;;;;;;24.60;23.90;100546.34;5038814;28;1115;-34
2023/02/05 02:52:16;;;;;;;;;;;;;;;25.09;22.68;100552.63;5037897;28;1033;-35
2023/02/05 02:54:42;;;;;;;;;;;;;;;29.09;17.64;100570.44;5038496;28;1051;-34
2023/02/05 02:57:07;;;;;;;;;;;;;;;27.28;19.10;100562.38;5025340;28;1148;-35
2023/02/05 02:59:33;;;;;;;;;;;;;;;28.66;18.48;100568.72;5038123;28;1150;-34
2023/02/05 03:01:59;;;;;;;;;;;;;;;29.51;17.51;100569.56;5055714;28;1106;-34
2023/02/05 03:04:28;;;;;;;;;;;;;;;29.49;17.40;100582.50;5037263;28;1882;-34
2023/02/05 03:06:54;;;;;;;;;;;;;;;29.66;17.33;100579.44;5056051;28;1358;-34
2023/02/05 03:09:38;;;;;;;;;;;;;;;29.92;16.97;100581.38;5038003;28;1041;-32
2023/02/05 03:12:03;;;;;;;;;;;;;;;29.99;16.88;100599.53;5056066;28;1035;-34
2023/02/05 03:14:29;;;;;;;;;;;;;;;30.18;16.63;100597.88;5038541;28;1096;-35
2023/02/05 03:16:54;;;;;;;;;;;;;;;30.29;16.54;100577.47;5055435;28;1008;-34
2023/02/05 03:19:19;;;;;;;;;;;;;;;30.42;16.39;100582.88;5037421;28;1234;-34
2023/02/05 03:21:49;;;;;;;;;;;;;;;30.68;16.21;100583.03;5059254;28;1380;-42
2023/02/05 03:24:14;;;;;;;;;;;;;;;30.89;16.14;100598.31;5041436;28;1968;-42
2023/02/05 03:26:41;;;;;;;;;;;;;;;31.09;15.92;100581.09;5042126;28;1092;-43
2023/02/05 03:29:10;;;;;;;;;;;;;;;30.90;16.07;100582.81;5059691;28;1052;-43
2023/02/05 03:31:44;;;;;;;;;;;;;;;30.27;16.72;100590.41;5059355;28;1416;-42
2023/02/05 03:34:12;;;;;;;;;;;;;;;30.19;16.95;100591.41;5041274;28;1315;-47
2023/02/05 03:36:47;;;;;;;;;;;;;;;30.46;16.66;100602.31;5060002;28;1064;-46
2023/02/05 03:39:17;;;;;;;;;;;;;;;30.43;16.55;100598.13;5059746;28;1096;-47
2023/02/05 03:41:57;;;;;;;;;;;;;;;30.36;16.55;100624.44;5041847;28;885;-53
2023/02/05 03:44:41;;;;;;;;;;;;;;;30.62;16.39;100611.03;5043565;28;2031;-53
2023/02/05 03:47:20;;;;;;;;;;;;;;;30.68;16.50;100615.63;5059502;28;1226;-46
2023/02/05 03:49:57;;;;;;;;;;;;;;;30.84;16.37;100617.13;5041851;28;1158;-55
2023/02/05 03:52:28;;;;;;;;;;;;;;;30.89;16.07;100638.19;5057856;28;2555;-56
2023/02/05 03:55:12;;;;;;;;;;;;;;;30.85;16.13;100629.63;5041394;28;2173;-50
2023/02/05 03:57:39;;;;;;;;;;;;;;;29.93;16.52;100636.44;5056856;28;1858;-46
2023/02/05 04:00:05;;;;;;;;;;;;;;;29.34;17.28;100634.94;5041324;28;2230;-47
2023/02/05 04:02:30;;;;;;;;;;;;;;;30.57;16.48;100641.53;5053833;28;2106;-53
2023/02/05 04:04:55;;;;;;;;;;;;;;;30.34;16.88;100650.94;5075956;28;1986;-50
2023/02/05 04:07:21;;;;;;;;;;;;;;;30.28;16.75;100638.22;5076640;28;1924;-48
2023/02/05 04:09:46;;;;;;;;;;;;;;;30.10;16.77;100638.75;5078844;28;1987;-47
2023/02/05 04:12:11;;;;;;;;;;;;;;;30.10;16.99;100655.88;5070986;28;2435;-51
2023/02/05 04:14:36;;;;;;;;;;;;;;;30.17;16.91;100653.19;5078476;28;2155;-48
2023/02/05 04:17:02;;;;;;;;;;;;;;;30.26;16.90;100665.53;5078130;28;1827;-48
2023/02/05 04:19:27;;;;;;;;;;;;;;;30.51;16.57;100674.97;5078871;28;1174;-49
2023/02/05 04:21:52;;;;;;;;;;;;;;;30.55;16.56;100671.63;5078693;28;1154;-47
2023/02/05 04:24:18;;;;;;;;;;;;;;;30.70;16.39;100681.41;5078692;28;1902;-47
2023/02/05 04:26:43;;;;;;;;;;;;;;;30.87;16.41;100675.59;5078218;28;2271;-47
2023/02/05 04:29:08;;;;;;;;;;;;;;;30.86;16.34;100668.50;5066159;28;2006;-45
2023/02/05 04:31:33;;;;;;;;;;;;;;;30.99;16.10;100694.81;5065841;28;1841;-47
2023/02/05 04:33:59;;;;;;;;;;;;;;;31.19;15.98;100683.06;5078286;28;1844;-46
2023/02/05 04:36:24;;;;;;;;;;;;;;;31.21;15.89;100700.00;5078385;28;2233;-45
2023/02/05 04:38:49;;;;;;;;;;;;;;;30.23;16.03;100709.34;5078356;28;2066;-45
2023/02/05 04:41:15;;;;;;;;;;;;;;;29.89;16.65;100705.69;5069542;28;2073;-43
2023/02/05 04:43:40;;;;;;;;;;;;;;;31.20;15.92;100715.44;5077950;28;2423;-47
2023/02/05 04:46:08;;;;;;;;;;;;;;;31.25;15.91;100734.69;5077725;28;1218;-44
2023/02/05 04:49:55;;;;;;;;;;;;;;;31.38;15.82;100738.44;5102215;27;1349;-24
2023/02/05 04:52:20;;;;;;;;;;;;;;;31.38;15.15;100744.69;5093022;28;1062;-21
2023/02/05 04:54:45;;;;;;;;;;;;;;;30.68;14.41;100740.50;5093113;28;854;-21
2023/02/05 04:57:11;;;;;;;;;;;;;;;30.18;14.03;100728.94;5093049;28;1390;-21
2023/02/05 04:59:36;;;;;;;;;;;;;;;28.84;13.78;100736.03;5093257;28;1114;-23
2023/02/05 05:02:01;;;;;;;;;;;;;;;23.81;15.95;100717.72;5092639;28;1012;-23
2023/02/05 05:04:27;;;;;;;;;;;;;;;23.07;16.10;100700.16;5093317;28;1071;-22
2023/02/05 05:06:52;;;;;;;;;;;;;;;26.65;15.67;100716.34;5092699;28;1036;-25
2023/02/05 05:09:19;;;;;;;;;;;;;;;22.34;16.47;100721.59;5091640;28;1906;-23
2023/02/05 05:11:45;;;;;;;;;;;;;;;21.29;17.97;100726.97;5091703;28;2470;-22
2023/02/05 05:14:10;;;;;;;;;;;;;;;21.72;17.81;100726.53;5092881;28;1114;-24
2023/02/05 05:16:35;;;;;;;;;;;;;;;22.39;17.11;100730.03;5093049;28;1178;-24
2023/02/05 05:19:00;;;;;;;;;;;;;;;23.07;17.33;100719.78;5092199;28;931;-22
2023/02/05 05:21:26;;;;;;;;;;;;;;;23.94;16.38;100753.03;5093110;28;1018;-24
2023/02/05 05:23:51;;;;;;;;;;;;;;;24.34;16.74;100744.44;5092507;28;1128;-23
2023/02/05 05:26:16;;;;;;;;;;;;;;;22.99;17.38;100754.59;5092248;28;1051;-22
2023/02/05 05:28:42;;;;;;;;;;;;;;;23.94;16.38;100736.91;5092496;28;1901;-23
2023/02/05 05:31:12;;;;;;;;;;;;;;;24.80;16.21;100737.81;5087582;28;883;-23
2023/02/05 05:33:37;;;;;;;;;;;;;;;23.72;16.88;100760.63;5080114;28;1087;-23
2023/02/05 05:36:03;;;;;;;;;;;;;;;24.22;17.69;100768.13;5092637;28;1080;-26
2023/02/05 05:38:29;;;;;;;;;;;;;;;26.90;15.57;100759.31;5092225;28;1000;-26
2023/02/05 05:43:47;;;;;;;;;;;;;;;27.94;15.09;100766.09;5085779;28;2549;-25
2023/02/05 05:46:13;;;;;;;;;;;;;;;28.19;14.94;100758.50;5092113;28;1095;-25
2023/02/05 05:48:39;;;;;;;;;;;;;;;28.20;15.26;100781.81;5091466;28;1901;-26
2023/02/05 05:51:04;;;;;;;;;;;;;;;28.39;14.78;100766.03;5092094;28;1035;-24
2023/02/05 05:53:29;;;;;;;;;;;;;;;28.28;14.95;100793.56;5092585;28;1094;-28
2023/02/05 05:55:55;;;;;;;;;;;;;;;28.65;14.64;100788.13;5091672;28;1016;-25
2023/02/05 05:58:20;;;;;;;;;;;;;;;28.47;14.88;100784.84;5091872;28;997;-26
2023/02/05 06:00:45;;;;;;;;;;;;;;;28.59;14.92;100803.28;5081965;28;1143;-24
2023/02/05 06:03:11;;;;;;;;;;;;;;;28.44;15.12;100812.31;5078846;28;1075;-25
2023/02/05 06:05:36;;;;;;;;;;;;;;;28.73;14.61;100825.91;5078168;28;953;-28
2023/02/05 06:08:01;;;;;;;;;;;;;;;28.78;14.70;100831.59;5077854;28;1902;-27
2023/02/05 06:10:27;;;;;;;;;;;;;;;28.81;14.63;100836.59;5078352;28;1167;-28
2023/02/05 06:12:54;;;;;;;;;;;;;;;28.63;14.98;100856.00;5078053;28;2507;-25
2023/02/05 06:15:19;;;;;;;;;;;;;;;28.70;14.92;100856.06;5078460;28;1007;-25
2023/02/05 06:17:44;;;;;;;;;;;;;;;28.68;14.95;100872.50;5078185;28;1019;-25
2023/02/05 06:20:10;;;;;;;;;;;;;;;28.73;14.93;100889.00;5078029;28;1019;-25
2023/02/05 06:22:35;;;;;;;;;;;;;;;29.01;14.61;100902.88;5078193;28;1083;-26
2023/02/05 06:25:01;;;;;;;;;;;;;;;28.78;15.01;100901.97;5077871;28;1155;-26
2023/02/05 06:27:26;;;;;;;;;;;;;;;28.80;14.82;100901.78;5077883;28;1111;-26
2023/02/05 06:29:52;;;;;;;;;;;;;;;28.84;14.87;100933.69;5077450;28;1953;-26
2023/02/05 06:32:17;;;;;;;;;;;;;;;28.48;14.88;100929.09;5078458;28;972;-27
2023/02/05 06:34:42;;;;;;;;;;;;;;;25.95;17.53;100937.25;5077781;28;1147;-28
2023/02/05 06:37:08;;;;;;;;;;;;;;;25.16;18.21;100934.00;5077776;28;992;-27
2023/02/05 06:39:34;;;;;;;;;;;;;;;25.46;18.10;100946.16;5077338;28;1047;-24
2023/02/05 06:41:59;;;;;;;;;;;;;;;28.08;15.68;100942.84;5074245;28;1765;-24
2023/02/05 06:44:24;;;;;;;;;;;;;;;25.83;17.64;100950.22;5073962;28;1047;-25
2023/02/05 06:46:50;;;;;;;;;;;;;;;24.86;18.49;100938.09;5077642;28;1220;-26
2023/02/05 06:49:15;;;;;;;;;;;;;;;26.36;16.95;100970.56;5077009;28;1910;-24
2023/02/05 06:51:40;;;;;;;;;;;;;;;25.11;18.28;100954.34;5077908;28;1054;-30
2023/02/05 06:54:06;;;;;;;;;;;;;;;26.50;17.29;100961.75;5076826;28;1008;-25
2023/02/05 06:56:31;;;;;;;;;;;;;;;27.77;15.89;100970.88;5077066;28;1086;-24
2023/02/05 06:58:56;;;;;;;;;;;;;;;27.85;16.00;100965.38;5077244;28;957;-27
2023/02/05 07:01:21;;;;;;;;;;;;;;;27.58;15.76;100968.44;5077006;28;1044;-28
2023/02/05 07:03:47;;;;;;;;;;;;;;;28.15;15.45;100970.00;5077258;28;1031;-25
2023/02/05 07:06:12;;;;;;;;;;;;;;;28.64;15.17;100979.47;5076628;28;1028;-24
2023/02/05 07:08:37;;;;;;;;;;;;;;;28.75;14.96;100978.16;5058963;28;1895;-27
2023/02/05 07:11:03;;;;;;;;;;;;;;;28.66;15.19;100960.34;5076846;28;1123;-24
2023/02/05 07:13:28;;;;;;;;;;;;;;;28.26;15.64;100969.53;5075529;28;2706;-26
2023/02/05 07:15:54;;;;;;;;;;;;;;;28.48;15.74;100970.53;5076807;28;1114;-23
2023/02/05 07:18:19;;;;;;;;;;;;;;;27.96;16.03;100983.88;5076960;28;1079;-24
2023/02/05 07:20:44;;;;;;;;;;;;;;;27.95;15.47;100981.34;5077198;28;1175;-24
2023/02/05 07:23:09;;;;;;;;;;;;;;;27.30;16.06;100982.50;5076817;28;1083;-29
2023/02/05 07:25:36;;;;;;;;;;;;;;;28.22;15.48;100993.44;5076538;28;1133;-26
2023/02/05 07:28:03;;;;;;;;;;;;;;;28.41;15.33;101002.06;5076769;28;1901;-25
2023/02/05 07:30:28;;;;;;;;;;;;;;;28.92;14.96;100984.22;5076058;28;1104;-25
2023/02/05 07:32:53;;;;;;;;;;;;;;;29.10;14.56;100985.69;5076857;28;1226;-24
2023/02/05 07:35:19;;;;;;;;;;;;;;;29.25;14.40;100996.47;5076664;28;1046;-25
2023/02/05 07:37:44;;;;;;;;;;;;;;;29.33;14.68;101015.31;5076436;28;1064;-25
2023/02/05 07:40:09;;;;;;;;;;;;;;;29.41;14.67;100997.28;5076999;28;988;-26
2023/02/05 07:42:35;;;;;;;;;;;;;;;29.31;14.61;101013.84;5073355;28;1852;-24
2023/02/05 07:45:00;;;;;;;;;;;;;;;29.12;14.77;101007.16;5076618;28;1147;-27
2023/02/05 07:47:25;;;;;;;;;;;;;;;28.06;15.33;101007.13;5076162;28;1016;-23
2023/02/05 07:49:50;;;;;;;;;;;;;;;26.35;16.86;101006.63;5076072;28;1909;-26
2023/02/05 07:52:16;;;;;;;;;;;;;;;25.66;17.82;100982.56;5076784;28;1166;-23
2023/02/05 07:54:41;;;;;;;;;;;;;;;26.38;17.43;101015.22;5075799;28;1007;-22
2023/02/05 07:57:06;;;;;;;;;;;;;;;28.09;15.73;101006.75;5075830;28;916;-25
2023/02/05 07:59:32;;;;;;;;;;;;;;;28.38;15.56;101018.66;5076563;28;1039;-27
2023/02/05 08:01:57;;;;;;;;;;;;;;;28.68;15.30;101023.22;5076433;28;1119;-24
2023/02/05 08:04:22;;;;;;;;;;;;;;;28.51;15.22;101018.00;5076132;28;1071;-27
2023/02/05 08:06:47;;;;;;;;;;;;;;;28.61;15.17;101031.28;5062773;28;1110;-24
2023/02/05 08:09:13;;;;;;;;;;;;;;;28.74;15.16;101038.75;5075726;28;1957;-26
2023/02/05 08:11:38;;;;;;;;;;;;;;;28.75;15.07;101031.44;5075936;28;2238;-25
2023/02/05 08:14:03;;;;;;;;;;;;;;;29.16;14.71;101024.72;5075999;28;1168;-25
2023/02/05 08:16:29;;;;;;;;;;;;;;;29.63;14.40;101036.09;5076193;28;1205;-25
2023/02/05 08:18:54;;;;;;;;;;;;;;;29.26;14.62;101046.09;5075573;28;1064;-27
2023/02/05 08:21:20;;;;;;;;;;;;;;;27.81;15.72;101037.91;5075883;28;1020;-27
2023/02/05 08:23:46;;;;;;;;;;;;;;;27.85;15.90;101057.31;5074910;28;1118;-24
2023/02/05 08:26:13;;;;;;;;;;;;;;;27.69;15.98;101059.13;5076003;28;1090;-24
2023/02/05 08:28:39;;;;;;;;;;;;;;;27.41;16.37;101059.56;5075998;28;1960;-23
2023/02/05 08:31:15;;;;;;;;;;;;;;;27.18;16.75;101052.28;5075681;28;1035;-24
2023/02/05 08:33:40;;;;;;;;;;;;;;;27.75;16.33;101080.03;5063736;28;1016;-25
2023/02/05 08:36:06;;;;;;;;;;;;;;;27.87;16.31;101088.56;5075351;28;1093;-27
2023/02/05 08:38:31;;;;;;;;;;;;;;;28.01;16.02;101112.28;5075537;28;1000;-24
2023/02/05 08:40:57;;;;;;;;;;;;;;;27.99;16.09;101097.06;5075483;28;983;-26
2023/02/05 08:43:22;;;;;;;;;;;;;;;28.03;16.29;101110.25;5068205;28;2549;-25
2023/02/05 08:45:47;;;;;;;;;;;;;;;28.10;16.02;101120.16;5075485;28;997;-24
2023/02/05 08:48:13;;;;;;;;;;;;;;;27.78;16.40;101115.81;5072967;28;1926;-24
2023/02/05 08:50:38;;;;;;;;;;;;;;;28.75;15.61;101135.16;5068934;28;1135;-27
2023/02/05 08:53:04;;;;;;;;;;;;;;;29.38;15.09;101144.81;5075382;28;1186;-23
2023/02/05 08:55:29;;;;;;;;;;;;;;;29.44;14.78;101154.91;5075050;28;1120;-27
2023/02/05 08:57:54;;;;;;;;;;;;;;;29.35;14.95;101156.03;5075311;28;1007;-27
2023/02/05 09:00:20;;;;;;;;;;;;;;;29.57;15.03;101177.78;5075422;28;1165;-23
2023/02/05 09:02:45;;;;;;;;;;;;;;;29.61;14.96;101189.13;5062044;28;1024;-26
2023/02/05 09:05:10;;;;;;;;;;;;;;;29.50;14.84;101183.13;5075597;28;1174;-26
2023/02/05 09:07:37;;;;;;;;;;;;;;;29.57;15.03;101194.91;5075152;28;1218;-24
2023/02/05 09:10:02;;;;;;;;;;;;;;;29.60;15.10;101192.84;5075484;28;1581;-24
2023/02/05 09:12:27;;;;;;;;;;;;;;;28.96;15.54;101198.59;5075562;28;2566;-24
2023/02/05 09:14:53;;;;;;;;;;;;;;;28.57;16.10;101198.63;5075386;28;1007;-25
2023/02/05 09:17:18;;;;;;;;;;;;;;;28.24;16.25;101194.25;5075477;28;1106;-26
2023/02/05 09:19:43;;;;;;;;;;;;;;;28.00;16.65;101195.25;5074943;28;1165;-26
2023/02/05 09:22:09;;;;;;;;;;;;;;;28.32;16.51;101184.41;5074751;28;1193;-24
2023/02/05 09:24:35;;;;;;;;;;;;;;;27.99;16.62;101197.13;5075541;28;1068;-24
2023/02/05 09:27:00;;;;;;;;;;;;;;;28.15;16.34;101206.16;5074653;28;1028;-27
2023/02/05 09:29:26;;;;;;;;;;;;;;;28.21;16.58;101189.22;5057028;28;1898;-24
2023/02/05 09:31:52;;;;;;;;;;;;;;;28.34;16.26;101193.22;5075082;28;1051;-27
2023/02/05 09:34:17;;;;;;;;;;;;;;;28.39;16.14;101180.00;5075244;28;1130;-23
2023/02/05 09:36:42;;;;;;;;;;;;;;;29.09;15.52;101190.69;5078938;28;1139;-24
2023/02/05 09:39:08;;;;;;;;;;;;;;;28.89;15.49;101182.25;5078955;28;1088;-23
2023/02/05 09:41:52;;;;;;;;;;;;;;;29.00;15.78;101193.66;5078631;28;1024;-26
2023/02/05 09:44:25;;;;;;;;;;;;;;;28.80;15.94;101203.16;5073357;28;1215;-23
2023/02/05 09:47:02;;;;;;;;;;;;;;;28.81;15.71;101220.25;5060917;28;1048;-25
2023/02/05 09:49:28;;;;;;;;;;;;;;;28.34;16.29;101221.09;5060508;28;1906;-25
2023/02/05 09:52:04;;;;;;;;;;;;;;;28.64;16.31;101206.84;5078893;28;1163;-26
2023/02/05 09:54:38;;;;;;;;;;;;;;;28.48;16.18;101216.78;5060669;28;1182;-24
2023/02/05 09:57:04;;;;;;;;;;;;;;;29.09;15.67;101214.25;5078343;28;902;-24
2023/02/05 09:59:30;;;;;;;;;;;;;;;29.33;15.42;101204.16;5060692;28;1040;-24
2023/02/05 10:01:56;;;;;;;;;;;;;;;29.13;15.46;101212.00;5078308;28;1126;-24
2023/02/05 10:04:21;;;;;;;;;;;;;;;28.39;16.16;101212.47;5078442;28;1163;-24
2023/02/05 10:07:06;;;;;;;;;;;;;;;28.47;16.49;101209.69;5060612;28;1110;-26
2023/02/05 10:09:31;;;;;;;;;;;;;;;29.13;15.47;101212.84;5067432;28;1914;-26
2023/02/05 10:12:03;;;;;;;;;;;;;;;29.40;15.35;101215.06;5077666;28;2248;-26
2023/02/05 10:14:33;;;;;;;;;;;;;;;29.47;15.34;101218.72;5078260;28;1078;-25
2023/02/05 10:17:11;;;;;;;;;;;;;;;29.76;15.14;101237.91;5060346;28;1183;-24
2023/02/05 10:19:55;;;;;;;;;;;;;;;29.54;15.34;101230.50;5077872;28;1436;-26
2023/02/05 10:22:27;;;;;;;;;;;;;;;29.72;15.08;101221.16;5065974;28;1017;-26
2023/02/05 10:25:11;;;;;;;;;;;;;;;28.50;16.31;101231.97;5078007;28;1043;-24
2023/02/05 10:27:55;;;;;;;;;;;;;;;27.77;16.76;101228.50;5078647;28;1182;-22
2023/02/05 10:30:24;;;;;;;;;;;;;;;29.16;15.97;101238.72;5060104;28;1124;-23
2023/02/05 10:32:51;;;;;;;;;;;;;;;28.67;16.28;101230.84;5065658;28;992;-26
2023/02/05 10:35:19;;;;;;;;;;;;;;;28.41;16.24;101215.00;5077805;28;1254;-22
2023/02/05 10:37:46;;;;;;;;;;;;;;;28.48;16.29;101227.59;5077734;28;1184;-24
2023/02/05 10:40:16;;;;;;;;;;;;;;;28.52;16.57;101222.69;5060188;28;1040;-22
2023/02/05 10:43:01;;;;;;;;;;;;;;;28.42;16.44;101222.91;5059168;28;2406;-22
2023/02/05 10:45:26;;;;;;;;;;;;;;;28.70;16.17;101218.81;5077565;28;850;-25
2023/02/05 10:47:52;;;;;;;;;;;;;;;28.53;16.33;101216.22;5077301;28;1905;-23
2023/02/05 10:50:19;;;;;;;;;;;;;;;28.64;16.40;101233.91;5077617;28;992;-23
2023/02/05 10:52:44;;;;;;;;;;;;;;;28.67;16.32;101220.03;5059677;28;1195;-24
2023/02/05 10:55:11;;;;;;;;;;;;;;;28.78;15.97;101220.63;5077270;28;1079;-25
2023/02/05 10:57:36;;;;;;;;;;;;;;;28.87;16.12;101224.06;5046214;28;977;-23
2023/02/05 11:00:02;;;;;;;;;;;;;;;29.74;15.25;101219.13;5077202;28;1131;-23
2023/02/05 11:02:37;;;;;;;;;;;;;;;29.76;15.34;101222.44;5077693;28;1071;-23
2023/02/05 11:05:05;;;;;;;;;;;;;;;29.19;15.66;101233.78;5076963;28;1135;-22
2023/02/05 11:07:35;;;;;;;;;;;;;;;29.07;15.80;101219.00;5059312;28;1040;-23
2023/02/05 11:10:13;;;;;;;;;;;;;;;29.38;15.38;101238.84;5051976;28;1905;-23
2023/02/05 11:12:38;;;;;;;;;;;;;;;28.51;16.26;101236.38;5075988;28;2552;-25
2023/02/05 11:15:04;;;;;;;;;;;;;;;29.17;15.85;101235.84;5076630;28;1024;-23
2023/02/05 11:17:33;;;;;;;;;;;;;;;28.94;15.94;101242.13;5059389;28;1000;-23
2023/02/05 11:20:18;;;;;;;;;;;;;;;28.92;16.19;101240.59;5076548;28;1027;-23
2023/02/05 11:22:45;;;;;;;;;;;;;;;28.79;16.25;101241.25;5076557;28;2112;-24
2023/02/05 11:25:14;;;;;;;;;;;;;;;29.33;15.92;101239.38;5063146;28;1138;-22
2023/02/05 11:27:39;;;;;;;;;;;;;;;29.32;15.67;101235.00;5077140;28;1118;-22
2023/02/05 11:30:29;;;;;;;;;;;;;;;29.76;15.43;101238.72;5076405;28;1970;-23
2023/02/05 11:32:55;;;;;;;;;;;;;;;30.12;14.98;101242.50;5076920;28;1072;-24
2023/02/05 11:35:24;;;;;;;;;;;;;;;30.06;14.99;101235.94;5058548;28;1063;-23
2023/02/05 11:37:55;;;;;;;;;;;;;;;29.49;15.73;101229.38;5076125;28;1024;-23
2023/02/05 11:40:21;;;;;;;;;;;;;;;30.23;14.99;101240.34;5076703;28;1079;-24
2023/02/05 11:42:47;;;;;;;;;;;;;;;29.70;15.32;101247.63;5070689;28;2417;-23
2023/02/05 11:45:14;;;;;;;;;;;;;;;29.34;15.15;101241.91;5057878;28;904;-24
2023/02/05 11:47:40;;;;;;;;;;;;;;;28.26;16.62;101231.13;5058812;28;1079;-23
2023/02/05 11:50:05;;;;;;;;;;;;;;;28.96;16.00;101245.47;5058269;28;1963;-24
2023/02/05 11:52:36;;;;;;;;;;;;;;;29.00;15.89;101242.41;5076430;28;1494;-24
2023/02/05 11:55:01;;;;;;;;;;;;;;;28.91;16.17;101260.59;5076285;28;1078;-25
2023/02/05 11:57:26;;;;;;;;;;;;;;;28.75;16.30;101257.00;5075484;28;1110;-23
2023/02/05 12:00:15;;;;;;;;;;;;;;;28.68;16.34;101247.91;5075993;28;1055;-24
2023/02/05 12:02:42;;;;;;;;;;;;;;;28.77;16.20;101264.94;5065333;28;1762;-24
2023/02/05 12:05:17;;;;;;;;;;;;;;;28.45;16.69;101256.88;5075642;28;1115;-24
2023/02/05 12:08:00;;;;;;;;;;;;;;;28.36;16.49;101264.22;5058537;28;1092;-24
2023/02/05 12:10:44;;;;;;;;;;;;;;;28.53;16.54;101273.06;5054781;28;881;-26
2023/02/05 12:13:25;;;;;;;;;;;;;;;28.31;16.63;101274.72;5075147;28;2597;-23
2023/02/05 12:15:53;;;;;;;;;;;;;;;29.42;15.75;101278.94;5046307;28;1140;-27
2023/02/05 12:18:45;;;;;;;;;;;;;;;29.56;15.59;101269.09;5075648;28;1170;-25
2023/02/05 12:21:26;;;;;;;;;;;;;;;28.80;16.17;101281.66;5071973;28;1046;-25
2023/02/05 12:23:51;;;;;;;;;;;;;;;28.53;16.56;101286.59;5045485;28;997;-25
2023/02/05 12:26:23;;;;;;;;;;;;;;;29.11;16.06;101285.34;5076008;28;1095;-23
2023/02/05 12:28:51;;;;;;;;;;;;;;;29.36;15.64;101297.78;5058052;28;1898;-24
2023/02/05 12:31:28;;;;;;;;;;;;;;;29.41;15.67;101295.38;5075812;28;1131;-25
2023/02/05 12:34:13;;;;;;;;;;;;;;;29.04;16.03;101300.63;5075626;28;892;-22
2023/02/05 12:36:47;;;;;;;;;;;;;;;28.90;16.11;101300.38;5075579;28;1135;-25
2023/02/05 12:39:12;;;;;;;;;;;;;;;28.35;16.11;101297.72;5058069;28;1055;-25
2023/02/05 12:41:41;;;;;;;;;;;;;;;27.48;17.21;101308.28;5074980;28;2546;-24
2023/02/05 12:44:26;;;;;;;;;;;;;;;28.44;16.53;101312.88;5038399;28;1020;-24
2023/02/05 12:47:00;;;;;;;;;;;;;;;28.94;16.12;101303.56;5065411;28;1032;-23
2023/02/05 12:49:25;;;;;;;;;;;;;;;29.02;15.89;101310.78;5057724;28;1915;-25
2023/02/05 12:52:07;;;;;;;;;;;;;;;29.09;15.93;101325.31;5075646;28;1024;-24
2023/02/05 12:54:45;;;;;;;;;;;;;;;28.68;16.15;101319.16;5058169;28;1076;-24